createdAt,value
2018-09-09T00:00:03.279Z,0
2018-09-09T00:05:02.584Z,0
2018-09-09T00:10:03.307Z,0
2018-09-09T00:15:02.855Z,0
2018-09-09T00:20:02.529Z,0
2018-09-09T00:25:03.194Z,0
2018-09-09T00:30:02.828Z,0
2018-09-09T00:35:02.443Z,0
2018-09-09T00:40:03.047Z,0
2018-09-09T00:45:02.789Z,0
2018-09-09T00:50:02.404Z,0
2018-09-09T00:55:03.170Z,0
2018-09-09T01:00:02.711Z,0
2018-09-09T01:05:03.392Z,0
2018-09-09T01:10:03.039Z,0
2018-09-09T01:15:03.243Z,0
2018-09-09T01:20:02.810Z,0
2018-09-09T01:25:02.462Z,0
2018-09-09T01:30:03.025Z,0
2018-09-09T01:35:02.736Z,0
2018-09-09T01:40:03.369Z,0
2018-09-09T01:45:03.038Z,0
2018-09-09T01:50:02.683Z,0
2018-09-09T01:55:03.285Z,0
2018-09-09T02:00:02.907Z,0
2018-09-09T02:05:02.521Z,0
2018-09-09T02:10:03.159Z,0
2018-09-09T02:15:02.740Z,0
2018-09-09T02:20:03.351Z,0
2018-09-09T02:25:02.955Z,0
2018-09-09T02:30:02.588Z,0
2018-09-09T02:35:03.256Z,0
2018-09-09T02:40:02.957Z,0
2018-09-09T02:45:02.625Z,0
2018-09-09T02:50:03.223Z,0
2018-09-09T02:55:02.739Z,0
2018-09-09T03:00:03.691Z,0
2018-09-09T03:05:03.334Z,0
2018-09-09T03:10:03.019Z,0
2018-09-09T03:15:02.587Z,0
2018-09-09T03:20:03.701Z,0
2018-09-09T03:25:03.290Z,0
2018-09-09T03:30:02.944Z,0
2018-09-09T03:35:02.486Z,0
2018-09-09T03:40:03.272Z,0
2018-09-09T03:45:02.750Z,0
2018-09-09T03:50:03.338Z,0
2018-09-09T03:55:02.994Z,0
2018-09-09T04:00:02.668Z,0
2018-09-09T04:05:03.241Z,0
2018-09-09T04:10:03.024Z,0
2018-09-09T04:15:03.229Z,0
2018-09-09T04:20:02.792Z,0
2018-09-09T04:25:03.417Z,0
2018-09-09T04:30:02.441Z,1
2018-09-09T04:35:03.166Z,2
2018-09-09T04:40:02.768Z,7
2018-09-09T04:45:02.466Z,16
2018-09-09T04:50:03.172Z,25
2018-09-09T04:55:02.695Z,52
2018-09-09T05:00:03.359Z,67
2018-09-09T05:05:02.851Z,86
2018-09-09T05:10:02.592Z,156
2018-09-09T05:15:03.303Z,413
2018-09-09T05:20:02.974Z,494
2018-09-09T05:25:02.665Z,494
2018-09-09T05:30:03.345Z,474
2018-09-09T05:35:02.893Z,452
2018-09-09T05:40:02.546Z,632
2018-09-09T05:45:03.182Z,870
2018-09-09T05:50:02.794Z,985
2018-09-09T05:55:02.510Z,909
2018-09-09T06:00:03.257Z,1000
2018-09-09T06:05:02.857Z,1000
2018-09-09T06:10:02.542Z,1000
2018-09-09T06:15:03.054Z,1000
2018-09-09T06:20:02.885Z,2000
2018-09-09T06:25:02.597Z,1000
2018-09-09T06:30:03.193Z,1000
2018-09-09T06:35:02.802Z,1000
2018-09-09T06:40:02.586Z,1000
2018-09-09T06:45:03.255Z,1000
2018-09-09T06:50:02.874Z,1000
2018-09-09T06:55:02.541Z,2000
2018-09-09T07:00:02.727Z,2000
2018-09-09T07:05:03.369Z,3000
2018-09-09T07:10:02.986Z,3000
2018-09-09T07:15:02.573Z,2000
2018-09-09T07:20:03.171Z,3000
2018-09-09T07:25:02.748Z,5000
2018-09-09T07:30:03.526Z,5000
2018-09-09T07:35:03.223Z,6000
2018-09-09T07:40:02.903Z,7000
2018-09-09T07:45:02.510Z,8000
2018-09-09T07:50:03.113Z,7000
2018-09-09T07:55:02.786Z,7000
2018-09-09T08:00:02.446Z,8000
2018-09-09T08:05:03.001Z,8000
2018-09-09T08:10:02.564Z,8000
2018-09-09T08:15:03.204Z,8000
2018-09-09T08:20:02.781Z,8000
2018-09-09T08:25:02.470Z,8000
2018-09-09T08:30:03.055Z,8000
2018-09-09T08:35:02.743Z,29000
2018-09-09T08:40:02.486Z,39000
2018-09-09T08:45:03.102Z,39000
2018-09-09T08:50:02.750Z,47000
2018-09-09T08:55:02.551Z,28000
2018-09-09T09:00:03.187Z,35000
2018-09-09T09:05:02.849Z,22000
2018-09-09T09:10:02.443Z,18000
2018-09-09T09:15:03.070Z,31000
2018-09-09T09:20:02.660Z,29000
2018-09-09T09:25:03.228Z,14000
2018-09-09T09:30:02.794Z,13000
2018-09-09T09:35:02.594Z,26000
2018-09-09T09:40:03.260Z,16000
2018-09-09T09:45:02.792Z,21000
2018-09-09T09:50:02.659Z,22000
2018-09-09T09:55:03.313Z,12000
2018-09-09T10:00:03.196Z,14000
2018-09-09T10:05:02.931Z,14000
2018-09-09T10:10:02.555Z,13000
2018-09-09T10:15:03.402Z,35000
2018-09-09T10:20:03.302Z,27000
2018-09-09T10:25:02.954Z,18000
2018-09-09T10:30:02.796Z,26000
2018-09-09T10:35:02.683Z,54000
2018-09-09T10:40:03.372Z,54000
2018-09-09T10:45:03.010Z,51000
2018-09-09T10:50:02.623Z,51000
2018-09-09T10:55:03.475Z,48000
2018-09-09T11:00:03.003Z,41000
2018-09-09T11:05:02.647Z,51000
2018-09-09T11:10:03.332Z,30000
2018-09-09T11:15:02.815Z,35000
2018-09-09T11:20:02.518Z,55000
2018-09-09T11:25:03.275Z,51000
2018-09-09T11:30:02.896Z,35000
2018-09-09T11:35:03.218Z,35000
2018-09-09T11:40:02.819Z,35000
2018-09-09T11:45:02.421Z,28000
2018-09-09T11:50:02.987Z,34000
2018-09-09T11:55:02.601Z,48000
2018-09-09T12:00:03.274Z,25000
2018-09-09T12:05:02.859Z,25000
2018-09-09T12:10:02.506Z,16000
2018-09-09T12:15:03.139Z,14000
2018-09-09T12:20:02.727Z,13000
2018-09-09T12:25:02.365Z,15000
2018-09-09T12:30:03.214Z,15000
2018-09-09T12:35:02.984Z,26000
2018-09-09T12:40:02.707Z,21000
2018-09-09T12:45:02.471Z,16000
2018-09-09T12:50:03.156Z,43000
2018-09-09T12:55:02.633Z,48000
2018-09-09T13:00:03.261Z,32000
2018-09-09T13:05:02.829Z,53000
2018-09-09T13:10:02.558Z,36000
2018-09-09T13:15:03.024Z,30000
2018-09-09T13:20:02.568Z,40000
2018-09-09T13:25:03.203Z,25000
2018-09-09T13:30:02.761Z,33000
2018-09-09T13:35:02.427Z,23000
2018-09-09T13:40:03.046Z,12000
2018-09-09T13:45:02.721Z,34000
2018-09-09T13:50:03.360Z,13000
2018-09-09T13:55:02.836Z,13000
2018-09-09T14:00:02.533Z,14000
2018-09-09T14:05:03.215Z,16000
2018-09-09T14:10:02.907Z,11000
2018-09-09T14:15:02.468Z,11000
2018-09-09T14:20:03.306Z,31000
2018-09-09T14:25:02.820Z,16000
2018-09-09T14:30:03.441Z,38000
2018-09-09T14:35:03.058Z,19000
2018-09-09T14:40:02.745Z,7000
2018-09-09T14:45:03.363Z,19000
2018-09-09T14:50:02.893Z,8000
2018-09-09T14:55:02.536Z,8000
2018-09-09T15:00:03.234Z,33000
2018-09-09T15:05:02.817Z,29000
2018-09-09T15:10:02.503Z,28000
2018-09-09T15:15:03.064Z,13000
2018-09-09T15:20:02.691Z,25000
2018-09-09T15:25:03.227Z,5000
2018-09-09T15:30:02.787Z,5000
2018-09-09T15:35:02.537Z,6000
2018-09-09T15:40:03.468Z,6000
2018-09-09T15:45:02.665Z,5000
2018-09-09T15:50:03.300Z,4000
2018-09-09T15:55:02.989Z,11000
2018-09-09T16:00:02.710Z,17000
2018-09-09T16:05:03.439Z,21000
2018-09-09T16:10:03.101Z,6000
2018-09-09T16:15:02.776Z,4000
2018-09-09T16:20:03.349Z,18000
2018-09-09T16:25:03.001Z,3000
2018-09-09T16:30:02.480Z,2000
2018-09-09T16:35:03.018Z,1000
2018-09-09T16:40:02.736Z,1000
2018-09-09T16:45:03.363Z,1000
2018-09-09T16:50:03.061Z,1000
2018-09-09T16:55:02.660Z,1000
2018-09-09T17:00:03.207Z,1000
2018-09-09T17:05:02.740Z,1000
2018-09-09T17:10:03.358Z,2000
2018-09-09T17:15:02.946Z,7000
2018-09-09T17:20:02.592Z,7000
2018-09-09T17:25:03.242Z,1000
2018-09-09T17:30:02.823Z,1000
2018-09-09T17:35:02.437Z,1000
2018-09-09T17:40:03.041Z,998
2018-09-09T17:45:02.666Z,589
2018-09-09T17:50:03.279Z,327
2018-09-09T17:55:02.856Z,196
2018-09-09T18:00:02.473Z,81
2018-09-09T18:05:03.011Z,66
2018-09-09T18:10:02.557Z,54
2018-09-09T18:15:03.119Z,42
2018-09-09T18:20:02.741Z,28
2018-09-09T18:25:03.348Z,13
2018-09-09T18:30:02.896Z,5
2018-09-09T18:35:02.595Z,2
2018-09-09T18:40:02.743Z,0
2018-09-09T18:45:02.633Z,0
2018-09-09T18:50:02.797Z,0
2018-09-09T18:55:03.361Z,0
2018-09-09T19:00:03.001Z,0
2018-09-09T19:05:03.057Z,0
2018-09-09T19:10:02.727Z,0
2018-09-09T19:15:03.315Z,0
2018-09-09T19:20:02.895Z,0
2018-09-09T19:25:02.470Z,0
2018-09-09T19:30:03.190Z,0
2018-09-09T19:35:02.789Z,0
2018-09-09T19:40:02.395Z,0
2018-09-09T19:45:02.974Z,0
2018-09-09T19:50:02.651Z,0
2018-09-09T19:55:03.215Z,0
2018-09-09T20:00:02.977Z,0
2018-09-09T20:05:02.634Z,0
2018-09-09T20:10:03.309Z,0
2018-09-09T20:15:02.896Z,0
2018-09-09T20:20:02.975Z,0
2018-09-09T20:25:02.599Z,0
2018-09-09T20:30:03.415Z,0
2018-09-09T20:35:02.957Z,0
2018-09-09T20:40:02.598Z,0
2018-09-09T20:45:03.021Z,0
2018-09-09T20:50:02.583Z,0
2018-09-09T20:55:03.202Z,0
2018-09-09T21:00:02.786Z,0
2018-09-09T21:05:03.306Z,0
2018-09-09T21:10:02.896Z,0
2018-09-09T21:15:02.496Z,0
2018-09-09T21:20:03.078Z,0
2018-09-09T21:25:02.608Z,0
2018-09-09T21:30:03.254Z,0
2018-09-09T21:35:02.841Z,0
2018-09-09T21:40:02.432Z,0
2018-09-09T21:45:03.075Z,0
2018-09-09T21:50:02.580Z,0
2018-09-09T21:55:03.245Z,0
2018-09-09T22:00:02.866Z,0
2018-09-09T22:05:02.477Z,0
2018-09-09T22:10:03.145Z,0
2018-09-09T22:15:02.610Z,0
2018-09-09T22:20:03.495Z,0
2018-09-09T22:25:03.084Z,0
2018-09-09T22:30:02.771Z,0
2018-09-09T22:35:02.468Z,0
2018-09-09T22:40:02.999Z,0
2018-09-09T22:45:02.549Z,0
2018-09-09T22:50:03.058Z,0
2018-09-09T22:55:02.615Z,0
2018-09-09T23:00:03.284Z,0
2018-09-09T23:05:03.064Z,0
2018-09-09T23:10:02.653Z,0
2018-09-09T23:15:03.294Z,0
2018-09-09T23:20:02.948Z,0
2018-09-09T23:25:02.502Z,0
2018-09-09T23:30:03.074Z,0
2018-09-09T23:35:02.600Z,0
2018-09-09T23:40:03.193Z,0
2018-09-09T23:45:02.764Z,0
2018-09-09T23:50:02.355Z,0
2018-09-09T23:55:02.931Z,0
